sensor_id;sensor_type;location;lat;lon;timestamp;pressure;altitude;pressure_sealevel;temperature;humidity
13015;BME280;6573;57.696;11.950;2023-03-25T00:00:00;99119.38;;;11.17;100.00
13015;BME280;6573;57.696;11.950;2023-03-25T00:02:32;99116.25;;;11.06;100.00
13015;BME280;6573;57.696;11.950;2023-03-25T00:05:01;99110.78;;;11.12;100.00
13015;BME280;6573;57.696;11.950;2023-03-25T00:07:30;99106.22;;;11.17;100.00
13015;BME280;6573;57.696;11.950;2023-03-25T00:10:00;99112.59;;;11.10;100.00
13015;BME280;6573;57.696;11.950;2023-03-25T00:12:29;99107.44;;;11.07;100.00
13015;BME280;6573;57.696;11.950;2023-03-25T00:14:57;99100.47;;;11.06;100.00
13015;BME280;6573;57.696;11.950;2023-03-25T00:17:26;99081.13;;;11.07;100.00
13015;BME280;6573;57.696;11.950;2023-03-25T00:19:55;99104.16;;;11.27;100.00
13015;BME280;6573;57.696;11.950;2023-03-25T00:22:23;99103.41;;;11.23;100.00
13015;BME280;6573;57.696;11.950;2023-03-25T00:24:52;99091.22;;;11.21;100.00
13015;BME280;6573;57.696;11.950;2023-03-25T00:27:22;99091.16;;;11.22;100.00
13015;BME280;6573;57.696;11.950;2023-03-25T00:29:51;99090.59;;;11.13;100.00
13015;BME280;6573;57.696;11.950;2023-03-25T00:32:19;99086.09;;;11.16;100.00
13015;BME280;6573;57.696;11.950;2023-03-25T00:34:48;99092.88;;;11.23;100.00
13015;BME280;6573;57.696;11.950;2023-03-25T00:37:18;99091.06;;;11.25;100.00
13015;BME280;6573;57.696;11.950;2023-03-25T00:39:47;99082.44;;;11.20;100.00
13015;BME280;6573;57.696;11.950;2023-03-25T00:42:16;99077.28;;;11.17;100.00
13015;BME280;6573;57.696;11.950;2023-03-25T00:44:53;99073.84;;;11.15;100.00
13015;BME280;6573;57.696;11.950;2023-03-25T00:47:22;99068.66;;;11.12;100.00
13015;BME280;6573;57.696;11.950;2023-03-25T00:49:54;99075.03;;;11.31;100.00
13015;BME280;6573;57.696;11.950;2023-03-25T00:52:23;99067.84;;;11.36;100.00
13015;BME280;6573;57.696;11.950;2023-03-25T00:54:52;99067.56;;;11.19;100.00
13015;BME280;6573;57.696;11.950;2023-03-25T00:57:21;99091.06;;;11.25;100.00
13015;BME280;6573;57.696;11.950;2023-03-25T00:59:49;99080.22;;;11.34;100.00
13015;BME280;6573;57.696;11.950;2023-03-25T01:02:23;99077.97;;;11.22;100.00
13015;BME280;6573;57.696;11.950;2023-03-25T01:04:52;99091.22;;;10.93;100.00
13015;BME280;6573;57.696;11.950;2023-03-25T01:07:23;99068.88;;;11.06;100.00
13015;BME280;6573;57.696;11.950;2023-03-25T01:09:51;99037.91;;;10.88;100.00
13015;BME280;6573;57.696;11.950;2023-03-25T01:12:20;99075.44;;;11.19;100.00
13015;BME280;6573;57.696;11.950;2023-03-25T01:14:49;99078.91;;;11.21;100.00
13015;BME280;6573;57.696;11.950;2023-03-25T01:17:17;99084.06;;;11.24;100.00
13015;BME280;6573;57.696;11.950;2023-03-25T01:19:47;99095.38;;;11.00;100.00
13015;BME280;6573;57.696;11.950;2023-03-25T01:22:16;99088.50;;;10.96;100.00
13015;BME280;6573;57.696;11.950;2023-03-25T01:24:45;99080.63;;;10.96;100.00
13015;BME280;6573;57.696;11.950;2023-03-25T01:27:13;99069.16;;;10.97;100.00
13015;BME280;6573;57.696;11.950;2023-03-25T01:29:44;99081.50;;;10.95;100.00
13015;BME280;6573;57.696;11.950;2023-03-25T01:32:12;99072.50;;;11.02;100.00
13015;BME280;6573;57.696;11.950;2023-03-25T01:34:41;99083.25;;;10.96;100.00
13015;BME280;6573;57.696;11.950;2023-03-25T01:37:11;99086.88;;;10.92;100.00
13015;BME280;6573;57.696;11.950;2023-03-25T01:39:39;99078.38;;;10.84;100.00
13015;BME280;6573;57.696;11.950;2023-03-25T01:42:09;99071.84;;;10.95;100.00
13015;BME280;6573;57.696;11.950;2023-03-25T01:47:47;99069.06;;;11.00;100.00
13015;BME280;6573;57.696;11.950;2023-03-25T01:50:17;99072.22;;;11.11;100.00
13015;BME280;6573;57.696;11.950;2023-03-25T01:52:49;99072.88;;;10.91;100.00
13015;BME280;6573;57.696;11.950;2023-03-25T01:55:19;99067.75;;;10.87;100.00
13015;BME280;6573;57.696;11.950;2023-03-25T01:57:47;99052.56;;;10.96;100.00
13015;BME280;6573;57.696;11.950;2023-03-25T02:00:20;99064.44;;;11.08;100.00
13015;BME280;6573;57.696;11.950;2023-03-25T02:02:48;99060.28;;;11.01;100.00
13015;BME280;6573;57.696;11.950;2023-03-25T02:05:21;99062.00;;;11.02;100.00
13015;BME280;6573;57.696;11.950;2023-03-25T02:07:53;99058.38;;;11.06;100.00
13015;BME280;6573;57.696;11.950;2023-03-25T02:10:24;99053.38;;;10.97;100.00
13015;BME280;6573;57.696;11.950;2023-03-25T02:12:55;99054.53;;;11.16;100.00
13015;BME280;6573;57.696;11.950;2023-03-25T02:15:27;99027.13;;;10.95;100.00
13015;BME280;6573;57.696;11.950;2023-03-25T02:18:09;99044.38;;;11.04;100.00
13015;BME280;6573;57.696;11.950;2023-03-25T02:21:15;99039.25;;;11.01;100.00
13015;BME280;6573;57.696;11.950;2023-03-25T02:24:25;99030.72;;;10.93;100.00
13015;BME280;6573;57.696;11.950;2023-03-25T02:27:18;99032.47;;;10.94;100.00
13015;BME280;6573;57.696;11.950;2023-03-25T02:30:08;99035.13;;;10.92;100.00
13015;BME280;6573;57.696;11.950;2023-03-25T02:33:12;98997.22;;;10.72;100.00
13015;BME280;6573;57.696;11.950;2023-03-25T02:35:58;99032.75;;;10.85;100.00
13015;BME280;6573;57.696;11.950;2023-03-25T02:38:36;99029.59;;;11.00;100.00
13015;BME280;6573;57.696;11.950;2023-03-25T02:41:13;99029.13;;;10.89;100.00
13015;BME280;6573;57.696;11.950;2023-03-25T02:43:48;99029.50;;;10.77;100.00
13015;BME280;6573;57.696;11.950;2023-03-25T02:46:19;98988.63;;;10.67;100.00
13015;BME280;6573;57.696;11.950;2023-03-25T02:48:52;99031.69;;;10.90;100.00
13015;BME280;6573;57.696;11.950;2023-03-25T02:51:27;99017.72;;;10.88;100.00
13015;BME280;6573;57.696;11.950;2023-03-25T02:54:01;99011.59;;;10.88;100.00
13015;BME280;6573;57.696;11.950;2023-03-25T02:56:32;98984.75;;;10.78;100.00
13015;BME280;6573;57.696;11.950;2023-03-25T02:59:01;98981.41;;;10.73;100.00
13015;BME280;6573;57.696;11.950;2023-03-25T03:01:30;99001.00;;;10.91;100.00
13015;BME280;6573;57.696;11.950;2023-03-25T03:04:01;98993.91;;;10.93;100.00
13015;BME280;6573;57.696;11.950;2023-03-25T03:06:31;99006.03;;;10.97;100.00
13015;BME280;6573;57.696;11.950;2023-03-25T03:09:17;99025.56;;;10.90;100.00
13015;BME280;6573;57.696;11.950;2023-03-25T03:11:57;99020.13;;;10.96;100.00
13015;BME280;6573;57.696;11.950;2023-03-25T03:14:40;99021.56;;;11.04;100.00
13015;BME280;6573;57.696;11.950;2023-03-25T03:17:15;99004.19;;;10.99;100.00
13015;BME280;6573;57.696;11.950;2023-03-25T03:19:50;99017.88;;;11.10;100.00
13015;BME280;6573;57.696;11.950;2023-03-25T03:22:35;99024.94;;;10.82;100.00
13015;BME280;6573;57.696;11.950;2023-03-25T03:25:18;99032.97;;;10.79;100.00
13015;BME280;6573;57.696;11.950;2023-03-25T03:27:51;99008.34;;;10.80;100.00
13015;BME280;6573;57.696;11.950;2023-03-25T03:30:25;99030.50;;;10.99;100.00
13015;BME280;6573;57.696;11.950;2023-03-25T03:33:04;99005.13;;;10.98;100.00
13015;BME280;6573;57.696;11.950;2023-03-25T03:35:38;99004.00;;;11.05;100.00
13015;BME280;6573;57.696;11.950;2023-03-25T03:38:11;98990.88;;;10.79;100.00
13015;BME280;6573;57.696;11.950;2023-03-25T03:40:47;98981.66;;;10.92;100.00
13015;BME280;6573;57.696;11.950;2023-03-25T03:43:22;98987.72;;;10.68;100.00
13015;BME280;6573;57.696;11.950;2023-03-25T03:45:54;99001.09;;;10.88;100.00
13015;BME280;6573;57.696;11.950;2023-03-25T03:48:31;99016.09;;;10.84;100.00
13015;BME280;6573;57.696;11.950;2023-03-25T03:51:03;99002.03;;;10.85;100.00
13015;BME280;6573;57.696;11.950;2023-03-25T03:53:37;98990.91;;;10.51;100.00
13015;BME280;6573;57.696;11.950;2023-03-25T03:56:10;99006.75;;;10.76;100.00
13015;BME280;6573;57.696;11.950;2023-03-25T03:58:45;98999.47;;;10.84;100.00
13015;BME280;6573;57.696;11.950;2023-03-25T04:01:17;98977.13;;;10.71;100.00
13015;BME280;6573;57.696;11.950;2023-03-25T04:03:58;98994.59;;;10.72;100.00
13015;BME280;6573;57.696;11.950;2023-03-25T04:06:32;99008.25;;;10.83;100.00
13015;BME280;6573;57.696;11.950;2023-03-25T04:09:08;98986.91;;;10.92;100.00
13015;BME280;6573;57.696;11.950;2023-03-25T04:11:49;98982.88;;;10.82;100.00
13015;BME280;6573;57.696;11.950;2023-03-25T04:14:21;98980.34;;;10.79;100.00
13015;BME280;6573;57.696;11.950;2023-03-25T04:16:49;98973.38;;;10.78;100.00
13015;BME280;6573;57.696;11.950;2023-03-25T04:19:18;98970.44;;;10.61;100.00
13015;BME280;6573;57.696;11.950;2023-03-25T04:21:47;98973.69;;;10.69;100.00
13015;BME280;6573;57.696;11.950;2023-03-25T04:24:15;98972.03;;;10.65;100.00
13015;BME280;6573;57.696;11.950;2023-03-25T04:26:46;98979.13;;;10.63;100.00
13015;BME280;6573;57.696;11.950;2023-03-25T04:29:16;98980.63;;;10.70;100.00
13015;BME280;6573;57.696;11.950;2023-03-25T04:31:45;98975.38;;;10.70;100.00
13015;BME280;6573;57.696;11.950;2023-03-25T04:34:16;98958.09;;;10.63;100.00
13015;BME280;6573;57.696;11.950;2023-03-25T04:36:46;98968.28;;;10.72;100.00
13015;BME280;6573;57.696;11.950;2023-03-25T04:39:16;98958.88;;;10.66;100.00
13015;BME280;6573;57.696;11.950;2023-03-25T04:41:50;98970.22;;;10.67;100.00
13015;BME280;6573;57.696;11.950;2023-03-25T04:44:20;98944.13;;;10.61;100.00
13015;BME280;6573;57.696;11.950;2023-03-25T04:46:49;98969.94;;;10.76;100.00
13015;BME280;6573;57.696;11.950;2023-03-25T04:49:19;98966.28;;;10.80;100.00
13015;BME280;6573;57.696;11.950;2023-03-25T04:51:48;98968.50;;;10.66;100.00
13015;BME280;6573;57.696;11.950;2023-03-25T04:54:17;98949.09;;;10.70;100.00
13015;BME280;6573;57.696;11.950;2023-03-25T04:56:49;98961.94;;;10.79;100.00
13015;BME280;6573;57.696;11.950;2023-03-25T04:59:18;98954.69;;;10.85;100.00
13015;BME280;6573;57.696;11.950;2023-03-25T05:01:47;98964.44;;;10.82;100.00
13015;BME280;6573;57.696;11.950;2023-03-25T05:04:17;98947.06;;;10.78;100.00
13015;BME280;6573;57.696;11.950;2023-03-25T05:06:48;98955.13;;;10.73;100.00
13015;BME280;6573;57.696;11.950;2023-03-25T05:09:19;98945.47;;;10.74;100.00
13015;BME280;6573;57.696;11.950;2023-03-25T05:11:51;98955.47;;;10.89;100.00
13015;BME280;6573;57.696;11.950;2023-03-25T05:14:20;98956.13;;;10.95;100.00
13015;BME280;6573;57.696;11.950;2023-03-25T05:16:49;98962.94;;;10.75;100.00
13015;BME280;6573;57.696;11.950;2023-03-25T05:19:18;98972.75;;;10.96;100.00
13015;BME280;6573;57.696;11.950;2023-03-25T05:21:46;98985.38;;;10.86;100.00
13015;BME280;6573;57.696;11.950;2023-03-25T05:24:15;98985.63;;;10.79;100.00
13015;BME280;6573;57.696;11.950;2023-03-25T05:26:46;98975.19;;;10.76;100.00
13015;BME280;6573;57.696;11.950;2023-03-25T05:29:15;98973.88;;;10.89;100.00
13015;BME280;6573;57.696;11.950;2023-03-25T05:31:47;98973.22;;;10.82;100.00
13015;BME280;6573;57.696;11.950;2023-03-25T05:34:15;98966.38;;;10.77;100.00
13015;BME280;6573;57.696;11.950;2023-03-25T05:36:44;98962.75;;;10.81;100.00
13015;BME280;6573;57.696;11.950;2023-03-25T05:39:12;98965.28;;;10.84;100.00
13015;BME280;6573;57.696;11.950;2023-03-25T05:41:41;98964.25;;;10.88;100.00
13015;BME280;6573;57.696;11.950;2023-03-25T05:44:11;98976.38;;;10.92;100.00
13015;BME280;6573;57.696;11.950;2023-03-25T05:46:48;98973.06;;;10.87;100.00
13015;BME280;6573;57.696;11.950;2023-03-25T05:49:17;98976.72;;;10.83;100.00
13015;BME280;6573;57.696;11.950;2023-03-25T05:51:45;98979.03;;;10.66;100.00
13015;BME280;6573;57.696;11.950;2023-03-25T05:54:15;98989.06;;;10.25;100.00
13015;BME280;6573;57.696;11.950;2023-03-25T05:56:44;98998.94;;;10.47;100.00
13015;BME280;6573;57.696;11.950;2023-03-25T05:59:13;98997.09;;;10.76;100.00
13015;BME280;6573;57.696;11.950;2023-03-25T06:01:43;98983.88;;;10.78;100.00
13015;BME280;6573;57.696;11.950;2023-03-25T06:04:13;98985.47;;;10.83;100.00
13015;BME280;6573;57.696;11.950;2023-03-25T06:06:42;99000.28;;;10.86;100.00
13015;BME280;6573;57.696;11.950;2023-03-25T06:09:11;98983.97;;;10.75;100.00
13015;BME280;6573;57.696;11.950;2023-03-25T06:11:39;98988.00;;;10.86;100.00
13015;BME280;6573;57.696;11.950;2023-03-25T06:14:08;98988.28;;;10.77;100.00
13015;BME280;6573;57.696;11.950;2023-03-25T06:16:37;98997.56;;;10.89;100.00
13015;BME280;6573;57.696;11.950;2023-03-25T06:19:05;99000.19;;;10.89;100.00
13015;BME280;6573;57.696;11.950;2023-03-25T06:21:36;98999.34;;;10.87;100.00
13015;BME280;6573;57.696;11.950;2023-03-25T06:24:05;99006.66;;;10.79;100.00
13015;BME280;6573;57.696;11.950;2023-03-25T06:26:34;99001.41;;;10.79;100.00
13015;BME280;6573;57.696;11.950;2023-03-25T06:29:07;99008.06;;;10.89;100.00
13015;BME280;6573;57.696;11.950;2023-03-25T06:31:36;99005.53;;;10.86;100.00
13015;BME280;6573;57.696;11.950;2023-03-25T06:34:05;99003.91;;;11.08;100.00
13015;BME280;6573;57.696;11.950;2023-03-25T06:36:36;99007.03;;;11.19;100.00
13015;BME280;6573;57.696;11.950;2023-03-25T06:39:04;98992.97;;;11.20;100.00
13015;BME280;6573;57.696;11.950;2023-03-25T06:41:34;99008.41;;;11.04;100.00
13015;BME280;6573;57.696;11.950;2023-03-25T06:44:04;98992.06;;;10.95;100.00
13015;BME280;6573;57.696;11.950;2023-03-25T06:46:32;98983.16;;;10.99;100.00
13015;BME280;6573;57.696;11.950;2023-03-25T06:49:00;98996.41;;;11.22;100.00
13015;BME280;6573;57.696;11.950;2023-03-25T06:51:29;98999.72;;;11.27;100.00
13015;BME280;6573;57.696;11.950;2023-03-25T06:53:59;99001.47;;;11.28;100.00
13015;BME280;6573;57.696;11.950;2023-03-25T06:56:27;98996.78;;;11.36;100.00
13015;BME280;6573;57.696;11.950;2023-03-25T06:58:56;99012.63;;;11.35;100.00
13015;BME280;6573;57.696;11.950;2023-03-25T07:01:24;98993.03;;;11.43;100.00
13015;BME280;6573;57.696;11.950;2023-03-25T07:03:52;99003.16;;;11.54;100.00
13015;BME280;6573;57.696;11.950;2023-03-25T07:06:24;99013.84;;;11.51;100.00
13015;BME280;6573;57.696;11.950;2023-03-25T07:08:52;99006.50;;;11.59;100.00
13015;BME280;6573;57.696;11.950;2023-03-25T07:11:27;99015.78;;;11.71;100.00
13015;BME280;6573;57.696;11.950;2023-03-25T07:13:57;99023.16;;;11.59;100.00
13015;BME280;6573;57.696;11.950;2023-03-25T07:16:28;99022.03;;;11.68;100.00
13015;BME280;6573;57.696;11.950;2023-03-25T07:18:56;99022.03;;;11.68;100.00
13015;BME280;6573;57.696;11.950;2023-03-25T07:21:28;99034.91;;;11.76;100.00
13015;BME280;6573;57.696;11.950;2023-03-25T07:23:56;99038.66;;;11.68;100.00
13015;BME280;6573;57.696;11.950;2023-03-25T07:26:26;99035.13;;;11.69;100.00
13015;BME280;6573;57.696;11.950;2023-03-25T07:28:54;99031.06;;;11.59;100.00
13015;BME280;6573;57.696;11.950;2023-03-25T07:31:23;99028.88;;;11.47;100.00
13015;BME280;6573;57.696;11.950;2023-03-25T07:33:52;99035.63;;;11.54;100.00
13015;BME280;6573;57.696;11.950;2023-03-25T07:36:22;99021.75;;;11.49;100.00
13015;BME280;6573;57.696;11.950;2023-03-25T07:38:51;99030.25;;;11.57;100.00
13015;BME280;6573;57.696;11.950;2023-03-25T07:41:22;99035.13;;;11.69;100.00
13015;BME280;6573;57.696;11.950;2023-03-25T07:43:52;99017.59;;;11.68;100.00
13015;BME280;6573;57.696;11.950;2023-03-25T07:46:21;99031.59;;;11.71;100.00
13015;BME280;6573;57.696;11.950;2023-03-25T07:48:49;99033.59;;;11.62;100.00
13015;BME280;6573;57.696;11.950;2023-03-25T07:51:17;99040.63;;;11.87;100.00
13015;BME280;6573;57.696;11.950;2023-03-25T07:53:47;99043.69;;;11.99;100.00
13015;BME280;6573;57.696;11.950;2023-03-25T07:56:16;99026.69;;;12.08;100.00
13015;BME280;6573;57.696;11.950;2023-03-25T07:58:44;99044.31;;;12.06;100.00
13015;BME280;6573;57.696;11.950;2023-03-25T08:01:17;99045.69;;;12.16;100.00
13015;BME280;6573;57.696;11.950;2023-03-25T08:03:45;99050.28;;;12.34;100.00
13015;BME280;6573;57.696;11.950;2023-03-25T08:06:14;99054.44;;;12.18;100.00
13015;BME280;6573;57.696;11.950;2023-03-25T08:08:42;99053.38;;;12.22;100.00
13015;BME280;6573;57.696;11.950;2023-03-25T08:11:11;99052.13;;;12.32;100.00
13015;BME280;6573;57.696;11.950;2023-03-25T08:13:40;99045.47;;;12.22;100.00
13015;BME280;6573;57.696;11.950;2023-03-25T08:16:10;99045.00;;;12.34;100.00
13015;BME280;6573;57.696;11.950;2023-03-25T08:18:40;99039.72;;;12.34;100.00
13015;BME280;6573;57.696;11.950;2023-03-25T08:21:11;99049.81;;;12.46;100.00
13015;BME280;6573;57.696;11.950;2023-03-25T08:23:39;99057.69;;;12.48;100.00
13015;BME280;6573;57.696;11.950;2023-03-25T08:26:10;99058.88;;;12.39;100.00
13015;BME280;6573;57.696;11.950;2023-03-25T08:28:39;99066.28;;;12.53;100.00
13015;BME280;6573;57.696;11.950;2023-03-25T08:31:07;99058.28;;;12.54;100.00
13015;BME280;6573;57.696;11.950;2023-03-25T08:33:36;99071.00;;;12.66;100.00
13015;BME280;6573;57.696;11.950;2023-03-25T08:36:10;99059.09;;;12.56;100.00
13015;BME280;6573;57.696;11.950;2023-03-25T08:38:40;99072.84;;;12.64;100.00
13015;BME280;6573;57.696;11.950;2023-03-25T08:41:09;99066.50;;;12.68;100.00
13015;BME280;6573;57.696;11.950;2023-03-25T08:43:39;99070.69;;;12.52;100.00
13015;BME280;6573;57.696;11.950;2023-03-25T08:46:11;99070.44;;;12.58;100.00
13015;BME280;6573;57.696;11.950;2023-03-25T08:48:39;99065.63;;;12.46;100.00
13015;BME280;6573;57.696;11.950;2023-03-25T08:51:12;99060.47;;;12.43;100.00
13015;BME280;6573;57.696;11.950;2023-03-25T08:53:43;99072.75;;;12.44;100.00
13015;BME280;6573;57.696;11.950;2023-03-25T08:56:11;99069.53;;;12.36;100.00
13015;BME280;6573;57.696;11.950;2023-03-25T08:58:40;99082.88;;;12.31;100.00
13015;BME280;6573;57.696;11.950;2023-03-25T09:01:08;99076.75;;;12.31;100.00
13015;BME280;6573;57.696;11.950;2023-03-25T09:03:38;99074.59;;;12.42;100.00
13015;BME280;6573;57.696;11.950;2023-03-25T09:06:07;99062.09;;;12.47;100.00
13015;BME280;6573;57.696;11.950;2023-03-25T09:08:37;99083.13;;;12.70;100.00
13015;BME280;6573;57.696;11.950;2023-03-25T09:11:06;99084.28;;;12.63;100.00
13015;BME280;6573;57.696;11.950;2023-03-25T09:13:34;98997.13;;;12.23;100.00
13015;BME280;6573;57.696;11.950;2023-03-25T09:16:03;99078.44;;;12.78;100.00
13015;BME280;6573;57.696;11.950;2023-03-25T09:18:31;99097.34;;;12.89;100.00
13015;BME280;6573;57.696;11.950;2023-03-25T09:21:05;99109.13;;;13.02;100.00
13015;BME280;6573;57.696;11.950;2023-03-25T09:23:34;99084.19;;;12.88;100.00
13015;BME280;6573;57.696;11.950;2023-03-25T09:26:04;99100.78;;;12.91;100.00
13015;BME280;6573;57.696;11.950;2023-03-25T09:28:35;99078.81;;;12.69;100.00
13015;BME280;6573;57.696;11.950;2023-03-25T09:31:04;99107.66;;;12.95;100.00
13015;BME280;6573;57.696;11.950;2023-03-25T09:33:32;99112.91;;;12.95;100.00
13015;BME280;6573;57.696;11.950;2023-03-25T09:36:02;99121.28;;;12.85;100.00
13015;BME280;6573;57.696;11.950;2023-03-25T09:38:30;99090.72;;;12.79;100.00
13015;BME280;6573;57.696;11.950;2023-03-25T09:41:03;99113.78;;;12.74;100.00
13015;BME280;6573;57.696;11.950;2023-03-25T09:43:38;99117.56;;;12.67;100.00
13015;BME280;6573;57.696;11.950;2023-03-25T09:46:17;99130.69;;;12.46;100.00
13015;BME280;6573;57.696;11.950;2023-03-25T09:48:46;99134.44;;;12.40;100.00
13015;BME280;6573;57.696;11.950;2023-03-25T09:51:20;99128.50;;;12.33;100.00
13015;BME280;6573;57.696;11.950;2023-03-25T09:53:54;99123.88;;;12.40;100.00
13015;BME280;6573;57.696;11.950;2023-03-25T09:56:29;99134.69;;;12.56;100.00
13015;BME280;6573;57.696;11.950;2023-03-25T09:59:00;99140.63;;;12.62;100.00
13015;BME280;6573;57.696;11.950;2023-03-25T10:01:36;99134.19;;;12.46;100.00
13015;BME280;6573;57.696;11.950;2023-03-25T10:04:32;99102.94;;;12.12;100.00
13015;BME280;6573;57.696;11.950;2023-03-25T10:07:18;99142.31;;;12.17;100.00
13015;BME280;6573;57.696;11.950;2023-03-25T10:09:59;99131.81;;;12.40;100.00
13015;BME280;6573;57.696;11.950;2023-03-25T10:12:41;99128.81;;;12.49;100.00
13015;BME280;6573;57.696;11.950;2023-03-25T10:15:20;99149.34;;;12.64;100.00
13015;BME280;6573;57.696;11.950;2023-03-25T10:18:04;99147.28;;;12.72;100.00
13015;BME280;6573;57.696;11.950;2023-03-25T10:20:43;99155.97;;;12.51;100.00
13015;BME280;6573;57.696;11.950;2023-03-25T10:23:21;99151.97;;;12.41;100.00
13015;BME280;6573;57.696;11.950;2023-03-25T10:26:00;99147.56;;;12.42;100.00
13015;BME280;6573;57.696;11.950;2023-03-25T10:28:37;99149.91;;;12.49;100.00
13015;BME280;6573;57.696;11.950;2023-03-25T10:31:14;99155.28;;;12.46;100.00
13015;BME280;6573;57.696;11.950;2023-03-25T10:33:52;99150.81;;;12.25;100.00
13015;BME280;6573;57.696;11.950;2023-03-25T10:36:29;99134.16;;;12.00;100.00
13015;BME280;6573;57.696;11.950;2023-03-25T10:39:00;99160.25;;;12.06;100.00
13015;BME280;6573;57.696;11.950;2023-03-25T10:41:34;99144.03;;;12.18;100.00
13015;BME280;6573;57.696;11.950;2023-03-25T10:44:08;99155.75;;;12.34;100.00
13015;BME280;6573;57.696;11.950;2023-03-25T10:46:39;99158.97;;;12.42;100.00
13015;BME280;6573;57.696;11.950;2023-03-25T10:49:17;99166.28;;;12.34;100.00
13015;BME280;6573;57.696;11.950;2023-03-25T10:51:49;99150.00;;;12.46;100.00
13015;BME280;6573;57.696;11.950;2023-03-25T10:54:20;99159.78;;;12.67;100.00
13015;BME280;6573;57.696;11.950;2023-03-25T10:56:51;99116.81;;;12.64;100.00
13015;BME280;6573;57.696;11.950;2023-03-25T10:59:24;99144.38;;;13.02;100.00
13015;BME280;6573;57.696;11.950;2023-03-25T11:01:56;99147.81;;;13.04;100.00
13015;BME280;6573;57.696;11.950;2023-03-25T11:04:34;99134.22;;;12.68;100.00
13015;BME280;6573;57.696;11.950;2023-03-25T11:07:15;99157.25;;;12.64;100.00
13015;BME280;6573;57.696;11.950;2023-03-25T11:09:45;99157.34;;;12.84;100.00
13015;BME280;6573;57.696;11.950;2023-03-25T11:12:17;99145.53;;;12.71;100.00
13015;BME280;6573;57.696;11.950;2023-03-25T11:15:05;99147.72;;;12.83;100.00
13015;BME280;6573;57.696;11.950;2023-03-25T11:17:34;99122.25;;;12.82;100.00
13015;BME280;6573;57.696;11.950;2023-03-25T11:20:05;99154.59;;;13.11;100.00
13015;BME280;6573;57.696;11.950;2023-03-25T11:22:37;99157.50;;;13.03;100.00
13015;BME280;6573;57.696;11.950;2023-03-25T11:25:17;99161.59;;;13.12;100.00
13015;BME280;6573;57.696;11.950;2023-03-25T11:27:48;99160.91;;;13.07;100.00
13015;BME280;6573;57.696;11.950;2023-03-25T11:30:22;99174.31;;;13.00;100.00
13015;BME280;6573;57.696;11.950;2023-03-25T11:32:59;99177.31;;;13.15;100.00
13015;BME280;6573;57.696;11.950;2023-03-25T11:35:31;99178.81;;;13.22;100.00
13015;BME280;6573;57.696;11.950;2023-03-25T11:38:01;99163.19;;;13.16;100.00
13015;BME280;6573;57.696;11.950;2023-03-25T11:40:48;99179.03;;;13.16;100.00
13015;BME280;6573;57.696;11.950;2023-03-25T11:43:21;99177.19;;;13.18;100.00
13015;BME280;6573;57.696;11.950;2023-03-25T11:45:54;99169.03;;;13.24;100.00
13015;BME280;6573;57.696;11.950;2023-03-25T11:48:29;99170.31;;;13.14;100.00
13015;BME280;6573;57.696;11.950;2023-03-25T11:51:01;99151.81;;;12.90;100.00
13015;BME280;6573;57.696;11.950;2023-03-25T11:53:32;99168.59;;;12.89;100.00
13015;BME280;6573;57.696;11.950;2023-03-25T11:56:02;99183.63;;;13.11;100.00
13015;BME280;6573;57.696;11.950;2023-03-25T11:58:33;99180.38;;;13.26;100.00
13015;BME280;6573;57.696;11.950;2023-03-25T12:01:06;99179.88;;;13.38;100.00
13015;BME280;6573;57.696;11.950;2023-03-25T12:03:47;99187.78;;;13.39;100.00
13015;BME280;6573;57.696;11.950;2023-03-25T12:06:17;99189.97;;;13.50;100.00
13015;BME280;6573;57.696;11.950;2023-03-25T12:08:49;99183.97;;;13.46;100.00
13015;BME280;6573;57.696;11.950;2023-03-25T12:11:20;99186.78;;;13.42;100.00
13015;BME280;6573;57.696;11.950;2023-03-25T12:14:14;99181.63;;;13.39;100.00
13015;BME280;6573;57.696;11.950;2023-03-25T12:16:55;99189.25;;;13.46;100.00
13015;BME280;6573;57.696;11.950;2023-03-25T12:19:39;99175.44;;;13.60;100.00
13015;BME280;6573;57.696;11.950;2023-03-25T12:22:34;99181.00;;;13.54;100.00
13015;BME280;6573;57.696;11.950;2023-03-25T12:25:14;99178.53;;;13.71;100.00
13015;BME280;6573;57.696;11.950;2023-03-25T12:27:56;99181.84;;;13.76;100.00
13015;BME280;6573;57.696;11.950;2023-03-25T12:30:41;99173.38;;;13.68;100.00
13015;BME280;6573;57.696;11.950;2023-03-25T12:33:25;99161.16;;;13.44;100.00
13015;BME280;6573;57.696;11.950;2023-03-25T12:36:10;99180.38;;;13.26;100.00
13015;BME280;6573;57.696;11.950;2023-03-25T12:38:50;99177.94;;;13.43;100.00
13015;BME280;6573;57.696;11.950;2023-03-25T12:41:27;99181.34;;;13.45;100.00
13015;BME280;6573;57.696;11.950;2023-03-25T12:44:01;99173.75;;;13.59;100.00
13015;BME280;6573;57.696;11.950;2023-03-25T12:47:02;99179.75;;;13.84;100.00
13015;BME280;6573;57.696;11.950;2023-03-25T12:49:51;99178.66;;;13.68;100.00
13015;BME280;6573;57.696;11.950;2023-03-25T12:52:29;99173.47;;;13.65;100.00
13015;BME280;6573;57.696;11.950;2023-03-25T12:55:14;99183.59;;;13.34;100.00
13015;BME280;6573;57.696;11.950;2023-03-25T12:57:59;99182.47;;;13.61;100.00
13015;BME280;6573;57.696;11.950;2023-03-25T13:00:41;99179.75;;;13.84;100.00
13015;BME280;6573;57.696;11.950;2023-03-25T13:03:43;99181.75;;;13.78;100.00
13015;BME280;6573;57.696;11.950;2023-03-25T13:06:19;99145.50;;;13.39;100.00
13015;BME280;6573;57.696;11.950;2023-03-25T13:08:56;99176.72;;;13.51;100.00
13015;BME280;6573;57.696;11.950;2023-03-25T13:11:30;99179.78;;;13.19;100.00
13015;BME280;6573;57.696;11.950;2023-03-25T13:14:04;99185.44;;;13.32;100.00
13015;BME280;6573;57.696;11.950;2023-03-25T13:16:37;99176.34;;;13.39;100.00
13015;BME280;6573;57.696;11.950;2023-03-25T13:19:12;99187.47;;;13.47;100.00
13015;BME280;6573;57.696;11.950;2023-03-25T13:21:46;99168.84;;;13.07;100.00